Time;durP1;ratioP1;P1;durP2;ratioP2;P2;SDS_P1;SDS_P2;PMS_P1;PMS_P2;Temp;Humidity;BMP_temperature;BMP_pressure;BME280_temperature;BME280_humidity;BME280_pressure;Samples;Min_cycle;Max_cycle;Signal;HPM_P1;HPM_P2
2022/07/24 00:00:40;;;;;;;22.10;10.52;;;17.00;99.90;;;;;;5028453;28;20063;-68
2022/07/24 00:03:05;;;;;;;17.90;10.50;;;16.90;99.90;;;;;;5028019;28;20395;-68
2022/07/24 00:05:31;;;;;;;12.60;10.32;;;17.00;99.90;;;;;;5027553;28;20036;-68
2022/07/24 00:07:57;;;;;;;22.58;11.98;;;17.00;99.90;;;;;;5029453;28;20506;-69
2022/07/24 00:10:22;;;;;;;15.10;9.93;;;17.00;99.90;;;;;;5028472;28;20034;-68
2022/07/24 00:12:48;;;;;;;14.68;11.20;;;17.00;99.90;;;;;;5028519;28;20125;-68
2022/07/24 00:15:14;;;;;;;12.88;10.30;;;17.00;99.90;;;;;;5027086;28;20022;-68
2022/07/24 00:17:40;;;;;;;18.60;10.43;;;17.00;99.90;;;;;;5028898;28;20403;-68
2022/07/24 00:20:07;;;;;;;13.07;10.60;;;17.00;99.90;;;;;;5012232;28;20032;-69
2022/07/24 00:22:32;;;;;;;15.20;10.40;;;17.00;99.90;;;;;;5028761;28;20057;-68
2022/07/24 00:24:58;;;;;;;14.70;10.55;;;16.90;99.90;;;;;;5028974;28;20057;-69
2022/07/24 00:27:23;;;;;;;14.68;10.50;;;16.90;99.90;;;;;;5029010;28;20040;-69
2022/07/24 00:29:49;;;;;;;15.45;11.80;;;16.90;99.90;;;;;;5028963;28;20040;-69
2022/07/24 00:32:15;;;;;;;18.88;10.48;;;16.90;99.90;;;;;;5028551;28;20087;-68
2022/07/24 00:34:40;;;;;;;17.30;11.00;;;16.90;99.90;;;;;;5021549;28;20026;-69
2022/07/24 00:37:06;;;;;;;14.30;10.88;;;16.90;99.90;;;;;;5027633;28;20021;-68
2022/07/24 00:39:31;;;;;;;16.77;11.38;;;16.90;99.90;;;;;;5030108;28;20503;-68
2022/07/24 00:41:57;;;;;;;15.20;10.55;;;16.80;99.90;;;;;;5029324;28;20029;-69
2022/07/24 00:44:22;;;;;;;7.82;5.30;;;16.70;99.90;;;;;;5028395;28;20036;-68
2022/07/24 00:46:48;;;;;;;17.00;10.38;;;16.70;99.90;;;;;;5029044;28;20033;-68
2022/07/24 00:49:17;;;;;;;16.58;10.85;;;16.60;99.90;;;;;;5030114;28;20108;-70
2022/07/24 00:51:44;;;;;;;21.13;11.63;;;16.50;99.90;;;;;;5028649;28;20025;-68
2022/07/24 00:54:12;;;;;;;17.33;11.88;;;16.50;99.90;;;;;;5029451;28;20057;-70
2022/07/24 00:56:40;;;;;;;16.23;11.50;;;16.50;99.90;;;;;;5030359;28;20030;-70
2022/07/24 00:59:06;;;;;;;15.25;11.52;;;16.40;99.90;;;;;;5029329;28;20067;-69
2022/07/24 01:01:32;;;;;;;14.75;11.10;;;16.40;99.90;;;;;;5033140;28;20528;-69
2022/07/24 01:03:58;;;;;;;18.05;12.65;;;16.40;99.90;;;;;;5033006;28;20480;-69
2022/07/24 01:06:24;;;;;;;18.67;11.77;;;16.40;99.90;;;;;;5029579;28;20037;-68
2022/07/24 01:08:50;;;;;;;20.35;12.93;;;16.40;99.90;;;;;;5033103;28;20033;-68
2022/07/24 01:11:16;;;;;;;18.77;13.45;;;16.40;99.90;;;;;;5032236;28;20044;-71
2022/07/24 01:13:42;;;;;;;18.23;12.55;;;16.30;99.90;;;;;;5032751;28;20021;-68
2022/07/24 01:16:08;;;;;;;18.83;12.55;;;16.30;99.90;;;;;;5032569;28;20027;-69
2022/07/24 01:18:34;;;;;;;15.95;12.23;;;16.20;99.90;;;;;;5032683;28;20403;-69
2022/07/24 01:21:00;;;;;;;22.52;12.55;;;16.20;99.90;;;;;;5030802;28;20029;-69
2022/07/24 01:23:26;;;;;;;17.23;12.65;;;16.10;99.90;;;;;;5032154;28;20026;-69
2022/07/24 01:25:51;;;;;;;21.33;13.38;;;16.10;99.90;;;;;;5032938;28;20108;-70
2022/07/24 01:28:18;;;;;;;17.90;12.95;;;16.10;99.90;;;;;;5031494;28;20030;-69
2022/07/24 01:30:44;;;;;;;20.88;13.25;;;16.10;99.90;;;;;;5032691;28;20037;-69
2022/07/24 01:33:10;;;;;;;21.08;13.02;;;16.10;99.90;;;;;;5031779;28;20030;-71
2022/07/24 01:35:36;;;;;;;19.55;13.18;;;16.10;99.90;;;;;;5028702;28;20546;-68
2022/07/24 01:38:02;;;;;;;21.10;13.50;;;16.10;99.90;;;;;;5030430;28;20025;-69
2022/07/24 01:40:28;;;;;;;20.45;13.98;;;16.10;99.90;;;;;;5031698;28;20021;-69
2022/07/24 01:42:53;;;;;;;19.45;13.75;;;16.10;99.90;;;;;;5031658;28;20025;-69
2022/07/24 01:45:19;;;;;;;17.30;13.43;;;16.10;99.90;;;;;;5031123;28;20036;-70
2022/07/24 01:47:45;;;;;;;18.90;12.98;;;16.00;99.90;;;;;;5031024;28;20129;-69
2022/07/24 01:50:12;;;;;;;21.75;13.85;;;16.10;99.90;;;;;;5027118;28;20021;-70
2022/07/24 01:52:38;;;;;;;21.50;13.77;;;16.00;99.90;;;;;;5031580;28;20484;-68
2022/07/24 01:55:04;;;;;;;18.48;13.05;;;16.00;99.90;;;;;;5030975;28;20091;-70
2022/07/24 01:57:31;;;;;;;17.80;13.68;;;16.00;99.90;;;;;;5030183;28;20483;-69
2022/07/24 01:59:58;;;;;;;29.67;14.13;;;16.00;99.90;;;;;;5030684;28;20507;-68
2022/07/24 02:02:23;;;;;;;18.92;12.95;;;16.00;99.90;;;;;;5032398;28;20079;-69
2022/07/24 02:04:49;;;;;;;25.63;14.40;;;16.00;99.90;;;;;;5030504;28;20041;-68
2022/07/24 02:07:15;;;;;;;18.60;13.90;;;15.90;99.90;;;;;;5027343;28;20037;-69
2022/07/24 02:09:40;;;;;;;23.50;14.43;;;15.90;99.90;;;;;;5031568;28;20085;-68
2022/07/24 02:12:06;;;;;;;21.38;13.60;;;15.90;99.90;;;;;;5028865;28;20037;-69
2022/07/24 02:14:32;;;;;;;21.00;13.85;;;15.90;99.90;;;;;;5031588;28;20036;-69
2022/07/24 02:16:57;;;;;;;29.40;14.70;;;15.90;99.90;;;;;;5032275;28;20017;-70
2022/07/24 02:19:24;;;;;;;21.63;13.75;;;15.80;99.90;;;;;;5029832;28;20041;-68
2022/07/24 02:21:49;;;;;;;21.10;14.05;;;15.80;99.90;;;;;;5030828;28;20029;-69
2022/07/24 02:24:15;;;;;;;19.27;13.68;;;15.80;99.90;;;;;;5030812;28;20721;-68
2022/07/24 02:26:40;;;;;;;18.48;14.98;;;15.80;99.90;;;;;;5032230;28;20116;-68
2022/07/24 02:29:06;;;;;;;20.35;14.77;;;15.80;99.90;;;;;;5030357;28;20484;-69
2022/07/24 02:31:31;;;;;;;18.95;14.50;;;15.80;99.90;;;;;;5031773;28;20029;-68
2022/07/24 02:33:57;;;;;;;18.23;14.48;;;15.80;99.90;;;;;;5029630;28;20075;-69
2022/07/24 02:36:23;;;;;;;20.55;15.02;;;15.70;99.90;;;;;;5030540;28;20504;-71
2022/07/24 02:38:48;;;;;;;21.05;15.20;;;15.70;99.90;;;;;;5030421;28;20033;-69
2022/07/24 02:41:14;;;;;;;29.70;16.15;;;15.70;99.90;;;;;;5031502;28;20030;-68
2022/07/24 02:43:39;;;;;;;24.52;16.60;;;15.70;99.90;;;;;;5030503;28;20036;-70
2022/07/24 02:46:05;;;;;;;19.30;15.90;;;15.80;99.90;;;;;;5028750;28;20465;-69
2022/07/24 02:48:30;;;;;;;18.55;14.68;;;15.70;99.90;;;;;;5031407;28;20034;-70
2022/07/24 02:50:56;;;;;;;21.83;14.23;;;15.70;99.90;;;;;;5028525;28;20029;-68
2022/07/24 02:53:21;;;;;;;23.10;15.57;;;15.70;99.90;;;;;;5013644;28;20029;-68
2022/07/24 02:55:47;;;;;;;24.33;15.77;;;15.60;99.90;;;;;;5030895;28;20033;-68
2022/07/24 02:58:12;;;;;;;26.05;15.85;;;15.60;99.90;;;;;;5031722;28;20100;-69
2022/07/24 03:00:38;;;;;;;21.35;14.95;;;15.60;99.90;;;;;;5029386;28;20107;-71
2022/07/24 03:03:03;;;;;;;23.08;16.02;;;15.60;99.90;;;;;;5031474;28;20041;-72
2022/07/24 03:05:29;;;;;;;22.85;16.13;;;15.60;99.90;;;;;;5028680;28;20037;-68
2022/07/24 03:07:55;;;;;;;21.58;16.65;;;15.50;99.90;;;;;;5028453;28;20650;-70
2022/07/24 03:10:20;;;;;;;24.83;16.48;;;15.60;99.90;;;;;;5031450;28;20052;-68
2022/07/24 03:12:46;;;;;;;22.85;15.90;;;15.50;99.90;;;;;;5030929;28;20036;-69
2022/07/24 03:15:13;;;;;;;22.35;16.05;;;15.50;99.90;;;;;;5031181;28;20026;-69
2022/07/24 03:17:46;;;;;;;22.45;15.45;;;15.50;99.90;;;;;;5031201;28;20704;-69
2022/07/24 03:20:12;;;;;;;18.23;14.90;;;15.50;99.90;;;;;;5029736;28;20575;-69
2022/07/24 03:22:38;;;;;;;20.27;16.13;;;15.50;99.90;;;;;;5029958;28;20112;-70
2022/07/24 03:25:03;;;;;;;22.95;15.20;;;15.50;99.90;;;;;;5031145;28;20061;-68
2022/07/24 03:27:29;;;;;;;19.90;15.35;;;15.50;99.90;;;;;;5030175;28;20434;-68
2022/07/24 03:29:55;;;;;;;22.52;14.98;;;15.50;99.90;;;;;;5030699;28;20055;-69
2022/07/24 03:32:20;;;;;;;20.80;14.73;;;15.50;99.90;;;;;;5030210;28;20040;-69
2022/07/24 03:34:46;;;;;;;20.42;15.23;;;15.50;99.90;;;;;;5028953;28;20030;-68
2022/07/24 03:37:11;;;;;;;21.27;15.45;;;15.50;99.90;;;;;;5030541;28;20076;-68
2022/07/24 03:39:37;;;;;;;26.05;15.02;;;15.50;99.90;;;;;;5029768;28;20120;-68
2022/07/24 03:42:02;;;;;;;26.83;14.70;;;15.50;99.90;;;;;;5030433;28;20105;-68
2022/07/24 03:44:28;;;;;;;19.02;14.05;;;15.50;99.90;;;;;;5028329;28;20760;-68
2022/07/24 03:46:54;;;;;;;20.27;14.02;;;15.50;99.90;;;;;;5027045;28;20113;-69
2022/07/24 03:49:19;;;;;;;26.83;15.32;;;15.40;99.90;;;;;;5029984;28;20080;-68
2022/07/24 03:51:45;;;;;;;21.27;15.80;;;15.50;99.90;;;;;;5027011;28;20044;-68
2022/07/24 03:54:10;;;;;;;17.95;14.20;;;15.50;99.90;;;;;;5030637;28;20026;-69
2022/07/24 03:56:36;;;;;;;20.13;15.27;;;15.50;99.90;;;;;;5028447;28;20403;-68
2022/07/24 03:59:01;;;;;;;21.73;14.90;;;15.50;99.90;;;;;;5030603;28;20025;-68
2022/07/24 04:01:27;;;;;;;19.67;14.80;;;15.50;99.90;;;;;;5026397;28;20033;-68
2022/07/24 04:03:52;;;;;;;18.35;14.80;;;15.50;99.90;;;;;;5029056;28;20029;-70
2022/07/24 04:06:18;;;;;;;19.50;14.15;;;15.50;99.90;;;;;;5027679;28;20025;-68
2022/07/24 04:08:44;;;;;;;17.20;14.35;;;15.60;99.90;;;;;;5028297;28;20030;-69
2022/07/24 04:11:10;;;;;;;22.55;14.07;;;15.50;99.90;;;;;;5028166;28;20060;-68
2022/07/24 04:13:36;;;;;;;18.65;14.60;;;15.50;99.90;;;;;;5029844;28;20060;-69
2022/07/24 04:16:01;;;;;;;21.10;14.57;;;15.60;99.90;;;;;;5028618;28;20025;-69
2022/07/24 04:18:27;;;;;;;18.10;14.50;;;15.60;99.90;;;;;;5028349;28;20108;-68
2022/07/24 04:20:53;;;;;;;21.33;14.45;;;15.60;99.90;;;;;;5028456;28;20032;-68
2022/07/24 04:23:18;;;;;;;21.08;14.32;;;15.60;99.90;;;;;;5028963;28;20018;-69
2022/07/24 04:25:44;;;;;;;21.75;15.27;;;15.60;99.90;;;;;;5028248;28;20377;-69
2022/07/24 04:28:10;;;;;;;21.20;15.13;;;15.60;99.90;;;;;;5028819;28;20025;-69
2022/07/24 04:30:35;;;;;;;18.70;14.73;;;15.60;99.90;;;;;;5028169;28;20504;-69
2022/07/24 04:33:01;;;;;;;24.15;13.88;;;15.70;99.90;;;;;;5029475;28;20044;-68
2022/07/24 04:35:27;;;;;;;20.65;14.05;;;15.70;99.90;;;;;;5027425;28;20036;-69
2022/07/24 04:37:52;;;;;;;18.73;14.35;;;15.70;99.90;;;;;;5028791;28;20032;-68
2022/07/24 04:40:18;;;;;;;22.20;15.00;;;15.70;99.90;;;;;;5029154;28;20164;-69
2022/07/24 04:42:43;;;;;;;21.63;13.27;;;15.80;99.90;;;;;;5029448;28;20044;-70
2022/07/24 04:45:12;;;;;;;19.02;14.30;;;15.80;99.90;;;;;;5027657;28;20075;-70
2022/07/24 04:47:38;;;;;;;17.35;13.15;;;15.90;99.90;;;;;;5029509;28;20391;-69
2022/07/24 04:50:05;;;;;;;19.20;13.23;;;15.90;99.90;;;;;;5026741;28;20040;-70
2022/07/24 04:52:30;;;;;;;18.23;13.35;;;16.00;99.90;;;;;;5028510;28;20044;-69
2022/07/24 04:54:56;;;;;;;23.38;14.38;;;16.00;99.90;;;;;;5027842;28;20104;-70
2022/07/24 04:57:22;;;;;;;20.75;13.48;;;16.00;99.90;;;;;;5029257;28;20496;-69
2022/07/24 04:59:47;;;;;;;17.05;13.18;;;16.10;99.90;;;;;;5027418;28;20036;-70
2022/07/24 05:02:13;;;;;;;18.35;13.35;;;16.10;99.90;;;;;;5029664;28;20095;-69
2022/07/24 05:04:38;;;;;;;15.18;12.85;;;16.10;99.90;;;;;;5028747;28;20115;-69
2022/07/24 05:07:04;;;;;;;17.35;13.48;;;16.20;99.90;;;;;;5027362;28;20033;-69
2022/07/24 05:09:29;;;;;;;20.40;13.45;;;16.20;99.90;;;;;;5027692;28;20044;-68
2022/07/24 05:11:55;;;;;;;16.90;12.68;;;16.30;99.90;;;;;;5027437;28;20462;-69
2022/07/24 05:14:21;;;;;;;15.07;12.73;;;16.30;99.90;;;;;;5029297;28;20076;-69
2022/07/24 05:16:46;;;;;;;20.10;11.93;;;16.40;99.90;;;;;;5028619;28;20053;-69
2022/07/24 05:19:12;;;;;;;16.52;12.70;;;16.50;99.90;;;;;;5029075;28;20468;-70
2022/07/24 05:21:38;;;;;;;17.48;11.95;;;16.50;99.90;;;;;;5027628;28;20081;-69
2022/07/24 05:24:04;;;;;;;18.60;12.00;;;16.70;99.90;;;;;;5029756;28;20083;-69
2022/07/24 05:26:31;;;;;;;16.00;11.13;;;16.70;99.90;;;;;;5027650;28;20029;-71
2022/07/24 05:28:58;;;;;;;18.20;11.13;;;16.80;99.90;;;;;;5029150;28;20021;-69
2022/07/24 05:31:24;;;;;;;15.52;11.05;;;16.90;99.90;;;;;;5028555;28;20112;-69
2022/07/24 05:33:49;;;;;;;14.35;11.50;;;17.00;99.90;;;;;;5029349;28;20113;-69
2022/07/24 05:36:15;;;;;;;16.77;10.80;;;17.10;99.90;;;;;;5027492;28;20029;-69
2022/07/24 05:38:40;;;;;;;13.35;10.82;;;17.10;99.90;;;;;;5028649;28;20061;-70
2022/07/24 05:41:06;;;;;;;15.52;11.50;;;17.20;99.90;;;;;;5028112;28;20029;-68
2022/07/24 05:43:31;;;;;;;13.63;9.95;;;17.30;99.90;;;;;;5027664;28;20029;-68
2022/07/24 05:45:57;;;;;;;17.73;10.57;;;17.40;99.90;;;;;;5028421;28;20041;-68
2022/07/24 05:48:23;;;;;;;13.88;10.60;;;17.40;99.90;;;;;;5032139;28;20025;-68
2022/07/24 05:50:48;;;;;;;12.77;9.57;;;17.50;99.90;;;;;;5031518;28;20472;-69
2022/07/24 05:53:14;;;;;;;12.32;10.32;;;17.60;99.90;;;;;;5030742;28;20038;-70
2022/07/24 05:55:39;;;;;;;16.42;9.50;;;17.60;99.90;;;;;;5027422;28;20281;-69
2022/07/24 05:58:05;;;;;;;13.80;9.77;;;17.70;99.90;;;;;;5031559;28;20116;-69
2022/07/24 06:00:30;;;;;;;12.57;9.93;;;17.70;99.90;;;;;;5031368;28;20025;-70
2022/07/24 06:02:56;;;;;;;12.32;10.40;;;17.80;99.90;;;;;;5030674;28;20046;-68
2022/07/24 06:05:21;;;;;;;15.52;9.45;;;17.80;99.90;;;;;;5026323;28;20114;-68
2022/07/24 06:07:47;;;;;;;12.68;9.25;;;17.90;99.90;;;;;;5032136;28;20040;-69
2022/07/24 06:10:12;;;;;;;13.13;10.38;;;17.90;99.90;;;;;;5032031;28;20452;-69
2022/07/24 06:12:38;;;;;;;14.32;9.15;;;18.00;99.90;;;;;;5031812;28;20602;-69
2022/07/24 06:15:04;;;;;;;16.00;9.35;;;18.00;99.90;;;;;;5031706;28;20025;-69
2022/07/24 06:17:29;;;;;;;15.25;10.32;;;18.10;99.90;;;;;;5029554;28;20053;-70
2022/07/24 06:19:55;;;;;;;14.15;9.95;;;18.20;99.90;;;;;;5032290;28;20103;-69
2022/07/24 06:22:21;;;;;;;12.25;8.57;;;18.20;99.90;;;;;;5027386;28;20064;-69
2022/07/24 06:24:46;;;;;;;14.57;9.20;;;18.30;99.90;;;;;;5031036;28;20106;-70
2022/07/24 06:27:12;;;;;;;12.48;9.32;;;18.40;99.90;;;;;;5022864;28;20029;-68
2022/07/24 06:29:37;;;;;;;15.07;8.63;;;18.50;99.90;;;;;;5027648;28;20462;-68
2022/07/24 06:32:03;;;;;;;13.60;10.07;;;18.50;99.90;;;;;;5026593;28;20037;-68
2022/07/24 06:34:29;;;;;;;13.93;9.13;;;18.60;99.90;;;;;;5027005;28;20034;-70
2022/07/24 06:36:54;;;;;;;14.95;8.77;;;18.70;99.90;;;;;;5024995;28;20029;-68
2022/07/24 06:39:20;;;;;;;13.73;8.93;;;18.80;99.90;;;;;;5017294;28;20022;-68
2022/07/24 06:41:45;;;;;;;16.60;9.60;;;18.90;99.90;;;;;;5028018;28;20073;-69
2022/07/24 06:44:11;;;;;;;13.25;9.15;;;19.00;99.90;;;;;;5017950;28;20100;-69
2022/07/24 06:46:36;;;;;;;12.70;8.82;;;19.00;99.90;;;;;;5020702;28;20068;-69
2022/07/24 06:49:02;;;;;;;11.60;9.43;;;19.20;99.90;;;;;;5017769;28;20033;-69
2022/07/24 06:51:27;;;;;;;11.48;8.00;;;19.30;99.90;;;;;;5020674;28;20104;-69
2022/07/24 06:53:53;;;;;;;13.88;7.60;;;19.40;99.90;;;;;;5024626;28;20112;-69
2022/07/24 06:56:19;;;;;;;12.07;8.52;;;19.50;99.90;;;;;;5024820;28;20029;-69
2022/07/24 06:58:44;;;;;;;13.13;8.40;;;19.60;99.90;;;;;;5020881;28;20149;-68
2022/07/24 07:01:10;;;;;;;12.00;8.90;;;19.60;99.90;;;;;;5022622;28;20075;-68
2022/07/24 07:03:35;;;;;;;15.30;9.52;;;19.60;99.90;;;;;;5021056;28;20036;-69
2022/07/24 07:06:01;;;;;;;14.75;9.45;;;19.80;99.90;;;;;;5021000;28;20045;-70
2022/07/24 07:08:26;;;;;;;12.20;8.98;;;19.90;99.90;;;;;;5018015;28;20037;-68
2022/07/24 07:10:52;;;;;;;13.50;9.82;;;20.00;99.90;;;;;;5022534;28;20120;-70
2022/07/24 07:13:17;;;;;;;11.52;8.52;;;20.10;99.90;;;;;;5020499;28;20112;-69
2022/07/24 07:15:43;;;;;;;11.13;8.45;;;20.10;99.90;;;;;;5026360;28;20386;-66
2022/07/24 07:18:08;;;;;;;10.95;8.90;;;20.20;99.90;;;;;;5023457;28;20392;-66
2022/07/24 07:20:34;;;;;;;13.45;10.07;;;20.30;99.90;;;;;;5017796;28;20022;-67
2022/07/24 07:22:59;;;;;;;16.48;9.27;;;20.30;99.90;;;;;;5030530;28;20418;-66
2022/07/24 07:25:25;;;;;;;12.68;8.95;;;20.40;99.90;;;;;;5019711;28;20040;-66
2022/07/24 07:27:51;;;;;;;13.10;8.98;;;20.50;99.90;;;;;;5020761;28;20030;-66
2022/07/24 07:30:16;;;;;;;11.80;8.27;;;20.50;99.90;;;;;;5008290;28;20174;-67
2022/07/24 07:32:42;;;;;;;10.13;7.97;;;20.50;99.90;;;;;;5030537;28;20023;-68
2022/07/24 07:35:08;;;;;;;13.93;9.02;;;20.60;99.90;;;;;;5030156;28;20021;-66
2022/07/24 07:37:34;;;;;;;16.60;9.38;;;20.70;99.90;;;;;;5029381;28;20053;-66
2022/07/24 07:40:00;;;;;;;11.82;8.77;;;20.80;99.90;;;;;;5029680;28;20459;-67
2022/07/24 07:42:25;;;;;;;18.40;9.63;;;21.00;99.90;;;;;;5030428;28;20519;-69
2022/07/24 07:44:51;;;;;;;15.65;9.40;;;21.10;99.90;;;;;;5030619;28;20041;-69
2022/07/24 07:47:16;;;;;;;16.83;9.38;;;21.20;99.90;;;;;;5030095;28;20037;-67
2022/07/24 07:49:42;;;;;;;12.70;8.98;;;21.20;99.90;;;;;;5030861;28;20100;-66
2022/07/24 07:52:08;;;;;;;11.93;8.82;;;21.30;99.90;;;;;;5029373;28;20053;-66
2022/07/24 07:54:33;;;;;;;14.38;7.97;;;21.30;99.90;;;;;;5030905;28;20078;-67
2022/07/24 07:56:59;;;;;;;15.25;8.55;;;21.40;99.90;;;;;;5029779;28;20025;-67
2022/07/24 07:59:24;;;;;;;11.77;8.30;;;21.50;99.90;;;;;;5012847;28;20078;-67
2022/07/24 08:01:50;;;;;;;10.35;7.40;;;21.70;99.90;;;;;;5026494;28;20033;-66
2022/07/24 08:04:15;;;;;;;12.18;7.45;;;21.80;99.90;;;;;;5030192;28;20808;-66
2022/07/24 08:06:41;;;;;;;9.75;6.93;;;21.90;99.90;;;;;;5026704;28;20030;-68
2022/07/24 08:09:07;;;;;;;11.57;7.07;;;22.00;99.90;;;;;;5029055;28;20036;-66
2022/07/24 08:11:33;;;;;;;9.43;7.57;;;22.00;99.90;;;;;;5029767;28;20633;-64
2022/07/24 08:13:58;;;;;;;11.48;8.05;;;22.10;99.90;;;;;;5028294;28;20022;-67
2022/07/24 08:16:25;;;;;;;7.95;6.97;;;22.20;99.90;;;;;;5028755;28;20434;-65
2022/07/24 08:18:50;;;;;;;12.82;8.43;;;22.30;99.90;;;;;;5027221;28;20070;-63
2022/07/24 08:21:18;;;;;;;13.23;8.13;;;22.40;99.90;;;;;;5029788;28;20497;-65
2022/07/24 08:23:44;;;;;;;12.98;8.80;;;22.40;99.90;;;;;;5029569;28;20021;-67
2022/07/24 08:26:11;;;;;;;12.88;7.32;;;22.60;99.90;;;;;;5029164;28;20104;-65
2022/07/24 08:28:36;;;;;;;14.25;7.38;;;22.70;99.90;;;;;;5030828;28;20025;-65
2022/07/24 08:31:02;;;;;;;8.50;7.00;;;22.70;99.90;;;;;;5029933;28;20036;-65
2022/07/24 08:33:28;;;;;;;7.88;6.43;;;22.80;99.90;;;;;;5030552;28;20017;-65
2022/07/24 08:35:54;;;;;;;15.85;7.35;;;22.90;99.90;;;;;;5029599;28;20029;-64
2022/07/24 08:38:19;;;;;;;9.82;7.28;;;23.00;99.90;;;;;;5028296;28;20026;-64
2022/07/24 08:40:45;;;;;;;11.07;7.35;;;23.20;99.90;;;;;;5028923;28;20033;-64
2022/07/24 08:43:11;;;;;;;9.27;6.75;;;23.30;99.90;;;;;;5031451;28;20033;-64
2022/07/24 08:45:39;;;;;;;13.38;6.85;;;23.40;99.90;;;;;;5028047;28;20055;-64
2022/07/24 08:48:07;;;;;;;12.13;7.38;;;23.40;99.90;;;;;;5029224;28;20056;-64
2022/07/24 08:50:35;;;;;;;16.77;6.60;;;23.50;99.90;;;;;;5025507;28;20033;-65
2022/07/24 08:53:01;;;;;;;9.25;6.80;;;23.60;99.90;;;;;;5025705;28;20037;-63
2022/07/24 08:55:28;;;;;;;13.15;6.68;;;23.70;99.90;;;;;;5026996;28;20033;-63
2022/07/24 08:57:56;;;;;;;10.57;6.25;;;23.80;99.90;;;;;;5030625;28;20029;-64
2022/07/24 09:00:23;;;;;;;9.98;6.97;;;24.00;99.90;;;;;;5027762;28;20021;-64
2022/07/24 09:02:49;;;;;;;12.65;6.88;;;24.00;99.90;;;;;;5028814;28;20041;-65
2022/07/24 09:05:14;;;;;;;10.35;7.07;;;24.10;99.90;;;;;;5031542;28;20469;-64
2022/07/24 09:07:40;;;;;;;8.75;7.10;;;24.20;99.90;;;;;;5030740;28;20025;-64
2022/07/24 09:10:08;;;;;;;8.45;6.90;;;24.40;99.90;;;;;;5052571;23;20201;-62
2022/07/24 09:12:36;;;;;;;8.32;6.97;;;24.40;99.90;;;;;;5011002;28;20034;-62
2022/07/24 09:15:11;;;;;;;9.52;6.38;;;24.60;99.90;;;;;;5009951;28;20049;-61
2022/07/24 09:17:54;;;;;;;9.45;6.75;;;24.70;99.90;;;;;;5013039;28;20022;-62
2022/07/24 09:20:21;;;;;;;10.95;7.38;;;24.80;99.90;;;;;;5012870;28;20057;-60
2022/07/24 09:22:48;;;;;;;8.77;7.30;;;25.00;99.90;;;;;;5009479;28;20121;-62
2022/07/24 09:25:17;;;;;;;10.43;7.43;;;25.00;99.90;;;;;;5013536;28;20890;-61
2022/07/24 09:27:49;;;;;;;9.90;7.18;;;25.20;99.90;;;;;;5017749;28;20105;-61
2022/07/24 09:30:28;;;;;;;8.75;6.65;;;25.20;99.90;;;;;;5028750;28;20032;-62
2022/07/24 09:33:04;;;;;;;12.45;7.38;;;25.30;99.90;;;;;;5011889;28;20033;-60
2022/07/24 09:35:29;;;;;;;10.40;7.38;;;25.30;99.90;;;;;;5006103;28;20025;-61
2022/07/24 09:37:56;;;;;;;7.70;6.13;;;25.50;99.90;;;;;;5010222;28;20097;-61
2022/07/24 09:40:28;;;;;;;7.90;6.78;;;25.50;99.90;;;;;;5020076;28;20036;-61
2022/07/24 09:43:11;;;;;;;13.20;7.05;;;25.70;99.90;;;;;;5004896;28;20026;-62
2022/07/24 09:45:53;;;;;;;7.93;6.40;;;25.90;99.90;;;;;;5011659;28;20496;-61
2022/07/24 09:48:28;;;;;;;10.27;7.63;;;26.10;99.90;;;;;;5008657;28;20200;-60
2022/07/24 09:50:55;;;;;;;12.38;6.90;;;26.20;99.90;;;;;;5020156;28;20029;-61
2022/07/24 09:53:27;;;;;;;11.68;6.80;;;26.40;99.90;;;;;;5011942;28;20034;-62
2022/07/24 09:56:01;;;;;;;10.32;6.63;;;26.60;99.90;;;;;;5020716;28;20061;-61
2022/07/24 09:58:27;;;;;;;;;;;26.60;99.90;;;;;;5009896;28;20014;-61
2022/07/24 10:00:57;;;;;;;8.57;6.32;;;26.60;99.90;;;;;;5011399;28;19917;-59
2022/07/24 10:03:29;;;;;;;10.38;7.05;;;26.70;99.90;;;;;;4999663;28;20028;-61
2022/07/24 10:05:58;;;;;;;9.48;6.88;;;26.90;99.90;;;;;;5007761;28;20013;-60
2022/07/24 10:08:24;;;;;;;9.27;6.50;;;27.00;99.90;;;;;;5011890;28;20080;-62
2022/07/24 10:10:50;;;;;;;7.95;6.07;;;27.10;99.90;;;;;;4991801;28;20088;-61
2022/07/24 10:13:16;;;;;;;10.48;7.13;;;27.20;99.90;;;;;;5012637;28;20113;-62
2022/07/24 10:15:54;;;;;;;11.48;7.38;;;27.30;99.90;;;;;;5006703;28;20029;-62
2022/07/24 10:18:21;;;;;;;7.80;6.70;;;27.30;99.90;;;;;;5016946;28;20037;-62
2022/07/24 10:20:47;;;;;;;9.73;6.57;;;27.50;99.90;;;;;;4993041;28;20032;-62
2022/07/24 10:23:54;;;;;;;10.82;6.25;;;27.70;99.90;;;;;;5011630;28;20034;-61
2022/07/24 10:26:31;;;;;;;10.60;7.57;;;27.70;99.90;;;;;;5007316;28;20041;-61
2022/07/24 10:29:10;;;;;;;9.25;6.72;;;28.00;99.90;;;;;;5016496;28;20037;-61
2022/07/24 10:31:44;;;;;;;8.43;5.88;;;28.30;99.90;;;;;;5009396;28;20026;-62
2022/07/24 10:34:19;;;;;;;11.80;6.68;;;28.40;99.90;;;;;;5010497;28;20021;-61
2022/07/24 10:36:57;;;;;;;10.77;7.18;;;28.30;99.90;;;;;;5007267;28;20033;-61
2022/07/24 10:39:31;;;;;;;7.53;6.10;;;28.60;99.90;;;;;;5022669;28;20060;-61
2022/07/24 10:42:05;;;;;;;9.55;6.60;;;28.60;99.90;;;;;;5007708;28;20030;-62
2022/07/24 10:44:31;;;;;;;8.30;6.88;;;28.60;99.90;;;;;;5011838;28;20036;-60
2022/07/24 10:46:59;;;;;;;7.97;6.50;;;28.40;99.90;;;;;;5011156;28;21666;-61
2022/07/24 10:49:42;;;;;;;8.85;6.72;;;28.60;99.90;;;;;;5012349;28;20034;-61
2022/07/24 10:52:23;;;;;;;9.45;6.53;;;28.60;99.90;;;;;;5009888;28;20029;-61
2022/07/24 10:55:27;;;;;;;10.57;6.57;;;28.60;99.90;;;;;;5023432;28;20171;-61
2022/07/24 10:58:01;;;;;;;8.13;6.43;;;28.80;99.90;;;;;;5006873;28;20025;-61
2022/07/24 11:00:37;;;;;;;8.98;6.03;;;29.00;99.90;;;;;;5005719;28;20504;-61
2022/07/24 11:03:05;;;;;;;8.15;6.10;;;29.10;99.90;;;;;;5001975;28;20039;-62
2022/07/24 11:05:36;;;;;;;9.02;6.38;;;29.20;99.90;;;;;;5005851;28;20030;-62
2022/07/24 11:08:29;;;;;;;11.00;6.07;;;29.20;99.90;;;;;;5005509;28;20404;-61
2022/07/24 11:10:58;;;;;;;7.25;6.10;;;29.30;99.90;;;;;;4998510;28;20050;-61
2022/07/24 11:13:32;;;;;;;8.50;6.20;;;29.30;99.90;;;;;;4997754;28;20034;-62
2022/07/24 11:16:10;;;;;;;8.88;5.70;;;29.40;99.90;;;;;;5003359;28;20429;-61
2022/07/24 11:18:36;;;;;;;7.30;5.65;;;29.70;99.90;;;;;;4998270;28;20580;-61
2022/07/24 11:21:02;;;;;;;8.10;5.85;;;29.90;99.90;;;;;;5002117;28;20438;-60
2022/07/24 11:23:28;;;;;;;6.93;6.10;;;30.10;99.90;;;;;;5000784;28;20084;-60
2022/07/24 11:26:43;;;;;;;7.25;6.10;;;30.20;99.60;;;;;;5002580;28;20030;-62
2022/07/24 11:29:29;;;;;;;10.30;5.55;;;30.30;99.90;;;;;;4998375;28;20045;-61
2022/07/24 11:31:57;;;;;;;7.82;5.90;;;30.10;99.60;;;;;;5002355;28;20109;-62
2022/07/24 11:34:24;;;;;;;9.45;6.28;;;30.40;99.90;;;;;;5006123;28;20038;-61
2022/07/24 11:36:52;;;;;;;8.63;6.50;;;30.60;99.40;;;;;;4999613;28;20405;-61
2022/07/24 11:39:19;;;;;;;9.30;5.00;;;30.60;99.90;;;;;;5006961;28;20034;-62
2022/07/24 11:41:46;;;;;;;9.27;6.28;;;30.80;99.90;;;;;;5003517;28;20456;-65
2022/07/24 11:44:12;;;;;;;9.40;5.53;;;31.00;97.80;;;;;;5002668;28;20522;-65
2022/07/24 11:46:40;;;;;;;7.25;5.97;;;30.90;97.60;;;;;;4978558;28;20030;-64
2022/07/24 11:49:08;;;;;;;6.32;5.18;;;30.80;97.60;;;;;;4998643;28;20034;-65
2022/07/24 11:51:49;;;;;;;8.55;5.35;;;31.00;96.40;;;;;;5000487;28;20482;-64
2022/07/24 11:54:21;;;;;;;5.60;5.00;;;30.90;96.10;;;;;;5003891;28;20038;-64
2022/07/24 11:56:48;;;;;;;10.18;5.63;;;30.80;96.20;;;;;;5001537;28;20156;-64
2022/07/24 11:59:32;;;;;;;7.55;5.53;;;30.90;99.10;;;;;;5004419;28;20132;-64
2022/07/24 12:02:10;;;;;;;6.43;5.22;;;31.20;96.00;;;;;;5003830;28;20045;-65
2022/07/24 12:04:38;;;;;;;9.65;6.00;;;31.60;97.70;;;;;;5005222;28;20033;-63
2022/07/24 12:07:18;;;;;;;6.63;5.65;;;32.00;96.00;;;;;;5000060;28;20087;-63
2022/07/24 12:09:58;;;;;;;8.82;5.43;;;31.70;95.10;;;;;;4996028;28;20053;-64
2022/07/24 12:12:32;;;;;;;8.93;5.25;;;32.00;94.10;;;;;;5000393;28;20038;-64
2022/07/24 12:15:06;;;;;;;8.07;5.03;;;31.70;92.50;;;;;;5001626;28;20022;-64
2022/07/24 12:17:52;;;;;;;8.10;5.88;;;31.90;92.60;;;;;;5002065;28;20038;-64
2022/07/24 12:20:24;;;;;;;5.95;5.32;;;31.70;97.30;;;;;;4992856;28;20038;-62
2022/07/24 12:22:51;;;;;;;6.53;5.28;;;31.80;97.50;;;;;;4993367;28;20045;-63
2022/07/24 12:25:16;;;;;;;7.03;4.97;;;32.10;93.40;;;;;;5001272;28;20133;-63
2022/07/24 12:27:47;;;;;;;7.07;5.40;;;32.40;94.90;;;;;;5001433;28;21126;-64
2022/07/24 12:30:21;;;;;;;8.75;5.03;;;32.70;94.80;;;;;;4997522;28;20037;-63
2022/07/24 12:33:17;;;;;;;8.07;5.63;;;32.80;93.40;;;;;;5001117;28;20030;-64
2022/07/24 12:36:08;;;;;;;5.65;5.05;;;32.90;95.20;;;;;;4985724;28;20038;-63
2022/07/24 12:38:35;;;;;;;7.28;5.22;;;32.70;90.70;;;;;;4997345;28;20022;-65